Time;durP1;ratioP1;P1;durP2;ratioP2;P2;SDS_P1;SDS_P2;PMS_P1;PMS_P2;Temp;Humidity;BMP_temperature;BMP_pressure;BME280_temperature;BME280_humidity;BME280_pressure;Samples;Min_cycle;Max_cycle;Signal;HPM_P1;HPM_P2
2023/05/29 00:01:34;;;;;;;1999.90;999.90;;;11.50;69.50;;;;;;5026416;28;20034;-87
2023/05/29 00:04:00;;;;;;;1999.90;999.90;;;11.50;69.30;;;;;;5030737;28;20045;-87
2023/05/29 00:06:25;;;;;;;1999.90;999.90;;;11.50;68.90;;;;;;5036317;28;20028;-87
2023/05/29 00:08:51;;;;;;;1999.90;999.90;;;11.50;69.70;;;;;;5036608;28;20030;-87
2023/05/29 00:11:17;;;;;;;1999.90;999.90;;;11.40;69.80;;;;;;5033711;28;20060;-86
2023/05/29 00:13:42;;;;;;;1999.90;999.90;;;11.30;69.30;;;;;;5038592;28;20029;-86
2023/05/29 00:16:09;;;;;;;1999.90;999.90;;;11.20;69.90;;;;;;5025571;28;20159;-86
2023/05/29 00:18:35;;;;;;;1999.90;999.90;;;11.30;70.10;;;;;;5030588;28;20029;-87
2023/05/29 00:21:01;;;;;;;1999.90;999.90;;;11.20;70.00;;;;;;5034581;28;20580;-87
2023/05/29 00:23:27;;;;;;;1999.90;999.90;;;11.10;70.70;;;;;;5033661;28;20061;-87
2023/05/29 00:25:53;;;;;;;1999.90;999.90;;;11.20;70.40;;;;;;5032590;28;20077;-87
2023/05/29 00:28:19;;;;;;;1999.90;999.90;;;11.30;70.00;;;;;;5031739;28;20220;-87
2023/05/29 00:30:45;;;;;;;1999.90;999.90;;;11.20;70.40;;;;;;5028687;28;20018;-87
2023/05/29 00:33:10;;;;;;;1999.90;999.90;;;11.30;69.80;;;;;;5036639;28;20355;-86
2023/05/29 00:35:36;;;;;;;1999.90;999.90;;;11.10;71.10;;;;;;5030400;28;20485;-87
2023/05/29 00:38:02;;;;;;;1999.90;999.90;;;10.90;71.20;;;;;;5022930;28;20037;-86
2023/05/29 00:40:27;;;;;;;1999.90;999.90;;;10.70;71.70;;;;;;5031410;28;20044;-86
2023/05/29 00:42:53;;;;;;;1999.90;999.90;;;10.60;72.70;;;;;;5016908;28;20064;-87
2023/05/29 00:45:19;;;;;;;1999.90;999.90;;;10.50;73.80;;;;;;5027376;28;20029;-88
2023/05/29 00:47:46;;;;;;;1999.90;999.90;;;10.40;73.70;;;;;;5037186;28;20033;-87
2023/05/29 00:50:13;;;;;;;1999.90;999.90;;;10.30;74.10;;;;;;5027566;28;20041;-88
2023/05/29 00:52:41;;;;;;;1999.90;999.90;;;10.20;73.90;;;;;;5019407;28;20022;-87
2023/05/29 00:55:08;;;;;;;1999.90;999.90;;;10.10;74.60;;;;;;5030483;28;20037;-86
2023/05/29 00:57:36;;;;;;;1999.90;999.90;;;10.20;74.80;;;;;;5015342;28;20037;-88
2023/05/29 01:00:05;;;;;;;1999.90;999.90;;;10.30;74.40;;;;;;5038463;28;20440;-89
2023/05/29 01:02:32;;;;;;;1999.90;999.90;;;10.30;74.70;;;;;;5026851;28;20057;-87
2023/05/29 01:04:58;;;;;;;1999.90;999.90;;;10.40;74.70;;;;;;5028849;28;20068;-86
2023/05/29 01:07:24;;;;;;;1999.90;999.90;;;10.40;74.20;;;;;;5036288;28;20079;-87
2023/05/29 01:09:50;;;;;;;1999.90;999.90;;;10.50;74.20;;;;;;5031442;28;20025;-87
2023/05/29 01:12:37;;;;;;;1999.90;999.90;;;10.40;74.50;;;;;;5039255;28;20621;-87
2023/05/29 01:15:09;;;;;;;1999.90;999.90;;;10.50;74.50;;;;;;5030441;28;20045;-88
2023/05/29 01:18:01;;;;;;;1999.90;999.90;;;10.30;74.30;;;;;;5030965;28;20400;-86
2023/05/29 01:20:44;;;;;;;1999.90;999.90;;;10.30;75.10;;;;;;5034123;28;20156;-88
2023/05/29 01:23:24;;;;;;;1999.90;999.90;;;10.20;75.30;;;;;;5037000;28;20030;-86
2023/05/29 01:26:11;;;;;;;1999.90;999.90;;;10.10;76.10;;;;;;5032319;28;20029;-87
2023/05/29 01:28:47;;;;;;;1999.90;999.90;;;10.10;76.30;;;;;;5026743;28;20396;-88
2023/05/29 01:31:15;;;;;;;1999.90;999.90;;;10.10;76.20;;;;;;5031322;28;20036;-87
2023/05/29 01:33:41;;;;;;;1999.90;999.90;;;10.10;76.80;;;;;;5020315;28;20049;-87
2023/05/29 01:36:08;;;;;;;1999.90;999.90;;;10.20;76.00;;;;;;5019189;28;20065;-86
2023/05/29 01:38:35;;;;;;;1999.90;999.90;;;10.10;76.10;;;;;;5032881;28;20032;-85
2023/05/29 01:41:01;;;;;;;1999.90;999.90;;;10.20;75.30;;;;;;5024099;28;20321;-87
2023/05/29 01:43:29;;;;;;;1999.90;999.90;;;10.20;75.60;;;;;;5033493;28;20052;-86
2023/05/29 01:45:55;;;;;;;1999.90;999.90;;;10.10;75.60;;;;;;5056207;28;20025;-86
2023/05/29 01:48:23;;;;;;;1999.90;999.90;;;10.10;75.50;;;;;;5053428;28;20037;-86
2023/05/29 01:50:48;;;;;;;1999.90;999.90;;;10.10;75.60;;;;;;5060717;28;20032;-86
2023/05/29 01:53:15;;;;;;;1999.90;999.90;;;10.10;75.20;;;;;;5039595;28;20089;-86
2023/05/29 01:55:40;;;;;;;1999.90;999.90;;;10.20;75.00;;;;;;5051813;28;20045;-86
2023/05/29 01:58:07;;;;;;;1999.90;999.90;;;10.10;75.20;;;;;;5055003;28;20080;-88
2023/05/29 02:00:33;;;;;;;1999.90;999.90;;;10.10;75.80;;;;;;5056928;28;20033;-86
2023/05/29 02:02:59;;;;;;;1999.90;999.90;;;10.10;75.50;;;;;;5060904;28;20048;-87
2023/05/29 02:05:24;;;;;;;1999.90;999.90;;;10.20;75.10;;;;;;5044763;28;20032;-86
2023/05/29 02:07:51;;;;;;;1999.90;999.90;;;10.20;74.60;;;;;;5053946;28;20024;-89
2023/05/29 02:10:16;;;;;;;1999.90;999.90;;;10.30;74.80;;;;;;5061700;28;20033;-87
2023/05/29 02:12:42;;;;;;;1999.90;999.90;;;10.30;74.60;;;;;;5059333;28;20020;-87
2023/05/29 02:15:08;;;;;;;1999.90;999.90;;;10.20;74.90;;;;;;5058027;28;20105;-89
2023/05/29 02:17:34;;;;;;;1999.90;999.90;;;10.10;74.90;;;;;;5054138;28;20018;-87
2023/05/29 02:20:00;;;;;;;1999.90;999.90;;;10.10;75.50;;;;;;5056098;28;20037;-88
2023/05/29 02:22:25;;;;;;;1999.90;999.90;;;10.20;75.00;;;;;;5053559;28;20036;-89
2023/05/29 02:24:51;;;;;;;1539.57;787.28;;;10.20;75.00;;;;;;5050940;28;20072;-89
2023/05/29 02:27:17;;;;;;;1999.90;999.90;;;10.20;75.10;;;;;;5060119;28;20037;-88
2023/05/29 02:29:42;;;;;;;1999.90;999.90;;;10.20;74.40;;;;;;5040803;28;20029;-90
2023/05/29 02:32:08;;;;;;;1999.90;999.90;;;10.20;75.20;;;;;;5039224;28;20152;-89
2023/05/29 02:34:33;;;;;;;1999.90;999.90;;;10.20;74.90;;;;;;5036361;28;20048;-88
2023/05/29 02:36:59;;;;;;;1999.90;999.90;;;10.10;75.10;;;;;;5039195;28;20079;-90
2023/05/29 02:39:25;;;;;;;1999.90;999.90;;;10.10;75.40;;;;;;5037032;28;20034;-89
2023/05/29 02:41:50;;;;;;;1136.28;627.47;;;10.10;74.90;;;;;;5034595;28;20131;-90
2023/05/29 02:44:16;;;;;;;1999.90;999.90;;;9.90;75.30;;;;;;5023359;28;20465;-89
2023/05/29 02:46:41;;;;;;;1999.90;999.90;;;10.00;75.40;;;;;;5031246;28;20034;-88
2023/05/29 02:49:07;;;;;;;1999.90;999.90;;;10.00;75.20;;;;;;5034324;28;20461;-88
2023/05/29 02:51:33;;;;;;;1999.90;999.90;;;10.00;74.70;;;;;;5020328;28;20025;-89
2023/05/29 02:53:58;;;;;;;1999.90;999.90;;;9.90;74.90;;;;;;5034876;28;20041;-89
2023/05/29 02:56:24;;;;;;;1123.32;614.80;;;9.80;75.40;;;;;;5023505;28;20537;-89
2023/05/29 02:58:50;;;;;;;844.75;573.50;;;9.80;75.40;;;;;;5028482;28;20039;-89
2023/05/29 03:01:16;;;;;;;1999.90;999.90;;;9.90;75.10;;;;;;5030361;28;20049;-88
2023/05/29 03:03:42;;;;;;;1999.90;999.90;;;10.00;74.50;;;;;;5029114;28;20040;-89
2023/05/29 03:06:09;;;;;;;1999.90;999.90;;;10.00;74.50;;;;;;5015469;28;20316;-90
2023/05/29 03:08:44;;;;;;;1166.90;655.97;;;9.90;74.50;;;;;;5015038;28;20053;-89
2023/05/29 03:11:11;;;;;;;1258.78;743.72;;;9.80;75.00;;;;;;5033460;28;20110;-89
2023/05/29 03:13:37;;;;;;;1999.90;999.90;;;9.80;75.30;;;;;;5022641;28;20029;-89
2023/05/29 03:16:03;;;;;;;1999.90;999.90;;;9.80;74.90;;;;;;5029418;28;20132;-90
2023/05/29 03:18:28;;;;;;;1279.25;764.40;;;9.80;74.80;;;;;;5028505;28;20468;-90
2023/05/29 03:20:54;;;;;;;906.17;632.33;;;9.80;75.30;;;;;;5035058;28;20057;-88
2023/05/29 03:23:20;;;;;;;584.22;550.65;;;9.80;74.80;;;;;;5039040;28;20048;-88
2023/05/29 03:25:45;;;;;;;1999.90;999.90;;;9.90;74.90;;;;;;5031249;28;20109;-88
2023/05/29 03:28:11;;;;;;;535.25;504.10;;;9.90;74.90;;;;;;5029177;28;20058;-89
2023/05/29 03:30:37;;;;;;;505.30;478.63;;;9.70;75.70;;;;;;5033362;28;20024;-89
2023/05/29 03:33:03;;;;;;;556.63;523.42;;;9.80;75.30;;;;;;5027373;28;20517;-89
2023/05/29 03:35:33;;;;;;;1274.10;758.08;;;9.80;75.00;;;;;;5033783;28;20388;-88
2023/05/29 03:37:58;;;;;;;1999.90;999.90;;;9.70;75.30;;;;;;5035905;28;20038;-90
2023/05/29 03:40:24;;;;;;;906.70;633.90;;;9.80;75.00;;;;;;5026439;28;20040;-89
2023/05/29 03:42:50;;;;;;;919.60;646.08;;;9.70;75.40;;;;;;5036970;28;20061;-88
2023/05/29 03:45:16;;;;;;;900.65;628.30;;;9.60;75.60;;;;;;5033312;28;20358;-88
2023/05/29 03:47:42;;;;;;;643.53;607.80;;;9.50;76.30;;;;;;5043050;28;20036;-90
2023/05/29 03:50:08;;;;;;;572.67;541.25;;;9.50;76.90;;;;;;5034025;28;20049;-90
2023/05/29 03:52:34;;;;;;;961.55;685.92;;;9.50;76.20;;;;;;5019411;28;20051;-89
2023/05/29 03:54:59;;;;;;;961.47;685.65;;;9.40;76.70;;;;;;5033017;28;20451;-88
2023/05/29 03:57:26;;;;;;;956.65;680.78;;;9.60;76.40;;;;;;5019106;28;20056;-86
2023/05/29 03:59:52;;;;;;;619.80;585.67;;;9.60;75.90;;;;;;5048433;28;20063;-86
2023/05/29 04:02:17;;;;;;;604.33;570.00;;;9.60;75.80;;;;;;5043561;28;20496;-90
2023/05/29 04:04:43;;;;;;;943.20;668.78;;;9.70;76.10;;;;;;5041648;28;20121;-87
2023/05/29 04:07:09;;;;;;;661.00;624.63;;;9.70;76.00;;;;;;5041781;28;20034;-88
2023/05/29 04:09:34;;;;;;;940.42;665.60;;;9.90;75.00;;;;;;5036446;28;20025;-87
2023/05/29 04:12:02;;;;;;;596.15;563.42;;;9.90;74.60;;;;;;5041197;28;20112;-89
2023/05/29 04:14:28;;;;;;;621.13;589.25;;;9.90;74.40;;;;;;5041007;28;20036;-89
2023/05/29 04:16:54;;;;;;;529.85;500.00;;;10.10;73.70;;;;;;5030389;28;20567;-88
2023/05/29 04:19:20;;;;;;;621.85;587.15;;;10.20;73.40;;;;;;5034712;28;20061;-88
2023/05/29 04:21:47;;;;;;;651.38;615.60;;;10.20;73.30;;;;;;5046201;28;20044;-88
2023/05/29 04:24:14;;;;;;;693.13;655.15;;;10.30;72.90;;;;;;5029373;28;20044;-88
2023/05/29 04:26:41;;;;;;;678.63;640.00;;;10.60;72.00;;;;;;5037532;28;20048;-88
2023/05/29 04:29:07;;;;;;;531.17;502.38;;;10.60;73.00;;;;;;5035451;28;20029;-88
2023/05/29 04:31:32;;;;;;;1000.22;722.58;;;10.60;72.20;;;;;;5039455;28;20037;-88
2023/05/29 04:34:00;;;;;;;653.38;618.50;;;10.70;72.00;;;;;;5036060;28;20622;-88
2023/05/29 04:36:26;;;;;;;636.45;600.42;;;10.70;71.60;;;;;;5032233;28;20030;-88
2023/05/29 04:38:55;;;;;;;511.35;486.58;;;10.80;72.40;;;;;;5016475;28;20635;-89
2023/05/29 04:41:23;;;;;;;702.53;662.45;;;11.00;70.80;;;;;;5036320;28;20120;-89
2023/05/29 04:43:50;;;;;;;557.60;530.85;;;10.90;71.40;;;;;;5040048;28;20029;-88
2023/05/29 04:46:16;;;;;;;651.10;615.38;;;11.10;70.70;;;;;;5036075;28;20035;-88
2023/05/29 04:48:43;;;;;;;539.28;511.35;;;11.20;70.30;;;;;;5038313;28;20052;-89
2023/05/29 04:51:10;;;;;;;691.22;654.00;;;11.20;69.80;;;;;;5042501;28;20045;-89
2023/05/29 04:53:39;;;;;;;637.15;599.75;;;11.30;70.40;;;;;;5038432;28;20535;-88
2023/05/29 04:56:05;;;;;;;677.60;637.90;;;11.30;70.20;;;;;;5034515;28;20087;-88
2023/05/29 04:58:31;;;;;;;696.40;655.33;;;11.30;70.40;;;;;;5044558;28;20496;-88
2023/05/29 05:00:57;;;;;;;462.48;440.63;;;11.40;69.70;;;;;;5038953;28;20037;-89
2023/05/29 05:03:25;;;;;;;580.65;546.28;;;11.50;69.00;;;;;;5042741;28;20025;-89
2023/05/29 05:05:51;;;;;;;551.78;521.90;;;11.50;68.70;;;;;;5042015;28;20040;-88
2023/05/29 05:08:17;;;;;;;605.03;571.75;;;11.50;68.90;;;;;;5036488;28;20437;-89
2023/05/29 05:10:43;;;;;;;573.17;541.15;;;11.60;68.80;;;;;;5043795;28;20476;-89
2023/05/29 05:13:11;;;;;;;963.53;684.13;;;11.70;68.60;;;;;;5038873;28;20029;-88
2023/05/29 05:15:36;;;;;;;596.03;563.05;;;11.80;68.70;;;;;;5035482;28;20576;-88
2023/05/29 05:18:02;;;;;;;1027.40;744.65;;;11.80;67.70;;;;;;5042733;28;20124;-89
2023/05/29 05:20:27;;;;;;;624.70;590.13;;;11.90;68.70;;;;;;5035436;28;20136;-89
2023/05/29 05:22:53;;;;;;;463.58;440.10;;;11.90;68.40;;;;;;5043791;28;20111;-88
2023/05/29 05:25:19;;;;;;;549.97;516.13;;;12.10;67.50;;;;;;5039018;28;20079;-90
2023/05/29 05:27:44;;;;;;;567.95;533.67;;;12.10;67.70;;;;;;5034634;28;20033;-89
2023/05/29 05:30:10;;;;;;;1999.90;999.90;;;12.20;66.40;;;;;;5040544;28;20128;-89
2023/05/29 05:32:36;;;;;;;1999.90;999.90;;;12.20;66.80;;;;;;5039966;28;20056;-90
2023/05/29 05:35:03;;;;;;;603.53;565.50;;;12.30;67.20;;;;;;5031076;28;20492;-86
2023/05/29 05:37:28;;;;;;;574.72;540.15;;;12.30;67.70;;;;;;5041658;28;20402;-88
2023/05/29 05:39:54;;;;;;;1289.65;772.17;;;12.40;66.60;;;;;;5036893;28;20083;-86
2023/05/29 05:42:20;;;;;;;786.05;738.05;;;12.40;66.80;;;;;;5036978;28;20040;-86
2023/05/29 05:44:46;;;;;;;570.22;531.88;;;12.40;67.20;;;;;;5036628;28;20086;-86
2023/05/29 05:47:12;;;;;;;837.63;564.08;;;12.50;67.70;;;;;;5034265;28;20033;-86
2023/05/29 05:49:37;;;;;;;1658.95;897.78;;;12.60;67.10;;;;;;5040325;28;20037;-86
2023/05/29 05:52:03;;;;;;;899.17;621.63;;;12.70;67.10;;;;;;5034094;28;20054;-85
2023/05/29 05:54:29;;;;;;;1181.40;667.55;;;12.70;66.80;;;;;;5032322;28;20037;-85
2023/05/29 05:56:54;;;;;;;1198.88;684.45;;;12.80;66.60;;;;;;5040241;28;20033;-86
2023/05/29 05:59:20;;;;;;;587.67;550.05;;;12.80;66.90;;;;;;5036988;28;20035;-85
2023/05/29 06:01:46;;;;;;;453.77;423.23;;;12.80;67.20;;;;;;5037756;28;20045;-84
2023/05/29 06:04:12;;;;;;;667.45;622.70;;;12.90;67.10;;;;;;5038146;28;20420;-86
2023/05/29 06:06:37;;;;;;;433.80;402.23;;;12.90;67.60;;;;;;5032507;28;20033;-85
2023/05/29 06:09:04;;;;;;;564.47;527.13;;;13.00;67.40;;;;;;5034196;28;20025;-85
2023/05/29 06:11:31;;;;;;;1999.90;999.90;;;13.20;67.10;;;;;;5031553;28;20029;-86
2023/05/29 06:13:57;;;;;;;599.10;557.47;;;13.30;66.60;;;;;;5035442;28;20041;-86
2023/05/29 06:16:23;;;;;;;1999.90;999.90;;;13.40;67.20;;;;;;5037735;28;20119;-85
2023/05/29 06:18:48;;;;;;;1597.25;840.47;;;13.40;66.30;;;;;;5034996;28;20116;-85
2023/05/29 06:21:14;;;;;;;1999.90;999.90;;;13.40;65.70;;;;;;5044733;28;20107;-85
2023/05/29 06:23:41;;;;;;;1999.90;999.90;;;13.50;66.00;;;;;;5039111;28;20061;-86
2023/05/29 06:26:07;;;;;;;899.50;625.42;;;13.60;65.10;;;;;;5034352;28;20057;-85
2023/05/29 06:28:33;;;;;;;1999.90;999.90;;;13.70;65.50;;;;;;5041916;28;20551;-85
2023/05/29 06:30:58;;;;;;;775.00;504.17;;;13.90;66.00;;;;;;5035883;28;20037;-85
2023/05/29 06:33:24;;;;;;;321.60;299.50;;;14.00;66.10;;;;;;5037033;28;20029;-86
2023/05/29 06:35:50;;;;;;;1625.07;865.75;;;13.90;65.50;;;;;;5038365;28;20120;-85
2023/05/29 06:38:15;;;;;;;1593.30;835.97;;;14.10;65.90;;;;;;5036230;28;20033;-86
2023/05/29 06:40:41;;;;;;;1999.90;999.90;;;14.10;65.10;;;;;;5041507;28;20033;-86
2023/05/29 06:43:07;;;;;;;1999.90;999.90;;;14.20;65.30;;;;;;5033548;28;20084;-86
2023/05/29 06:45:32;;;;;;;1999.90;999.90;;;14.30;65.00;;;;;;5039196;28;20116;-87
2023/05/29 06:47:58;;;;;;;1999.90;999.90;;;14.30;64.50;;;;;;5041732;28;20485;-85
2023/05/29 06:50:23;;;;;;;1999.90;999.90;;;14.30;64.30;;;;;;5035420;28;20033;-85
2023/05/29 06:52:49;;;;;;;1999.90;999.90;;;14.40;64.80;;;;;;5037485;28;20115;-86
2023/05/29 06:55:15;;;;;;;1999.90;999.90;;;14.50;65.20;;;;;;5020693;28;20115;-87
2023/05/29 06:57:40;;;;;;;1999.90;999.90;;;14.70;64.70;;;;;;5032809;28;20041;-87
2023/05/29 07:00:07;;;;;;;1999.90;999.90;;;14.90;65.20;;;;;;5042579;28;20040;-86
2023/05/29 07:02:33;;;;;;;1999.90;999.90;;;15.20;64.70;;;;;;5016630;28;20036;-87
2023/05/29 07:04:58;;;;;;;1999.90;999.90;;;15.10;63.80;;;;;;5034441;28;20424;-86
2023/05/29 07:07:24;;;;;;;1999.90;999.90;;;15.20;64.10;;;;;;5041310;28;20044;-87
2023/05/29 07:09:50;;;;;;;1582.75;825.10;;;15.40;65.50;;;;;;5035742;28;20044;-86
2023/05/29 07:12:16;;;;;;;1999.90;999.90;;;15.40;65.70;;;;;;5039724;28;20104;-86
2023/05/29 07:14:41;;;;;;;1999.90;999.90;;;15.50;64.00;;;;;;5037471;28;20091;-87
2023/05/29 07:17:07;;;;;;;1999.90;999.90;;;15.60;64.50;;;;;;5015901;28;20045;-86
2023/05/29 07:19:33;;;;;;;891.25;614.72;;;15.80;64.30;;;;;;5037136;28;20053;-86
2023/05/29 07:21:59;;;;;;;1999.90;999.90;;;16.00;64.10;;;;;;5036620;28;20568;-87
2023/05/29 07:24:25;;;;;;;1999.90;999.90;;;16.10;63.00;;;;;;5031514;28;20136;-86
2023/05/29 07:26:51;;;;;;;1999.90;999.90;;;16.20;62.30;;;;;;5039352;28;20029;-86
2023/05/29 07:29:17;;;;;;;1999.90;999.90;;;16.30;62.40;;;;;;5034982;28;20099;-85
2023/05/29 07:31:44;;;;;;;1999.90;999.90;;;16.40;60.80;;;;;;5036986;28;20056;-85
2023/05/29 07:34:10;;;;;;;1999.90;999.90;;;16.60;60.00;;;;;;5043218;28;20026;-87
2023/05/29 07:36:36;;;;;;;1999.90;999.90;;;16.60;59.60;;;;;;5035759;28;20397;-86
2023/05/29 07:39:02;;;;;;;1999.90;999.90;;;16.80;60.40;;;;;;5044741;28;20381;-86
2023/05/29 07:41:28;;;;;;;1999.90;999.90;;;16.90;57.10;;;;;;5018201;28;20164;-87
2023/05/29 07:43:55;;;;;;;1999.90;999.90;;;17.00;58.90;;;;;;5036724;28;20396;-87
2023/05/29 07:46:21;;;;;;;1999.90;999.90;;;17.10;58.10;;;;;;5039949;28;20151;-86
2023/05/29 07:48:46;;;;;;;1999.90;999.90;;;17.30;57.50;;;;;;5035145;28;20085;-85
2023/05/29 07:51:13;;;;;;;1999.90;999.90;;;17.50;55.20;;;;;;5044632;28;20127;-86
2023/05/29 07:53:38;;;;;;;1999.90;999.90;;;17.50;55.10;;;;;;5038801;28;20022;-86
2023/05/29 07:56:04;;;;;;;1999.90;999.90;;;17.60;55.10;;;;;;5037113;28;20033;-87
2023/05/29 07:58:30;;;;;;;1999.90;999.90;;;17.60;55.10;;;;;;5044870;28;20089;-86
2023/05/29 08:00:56;;;;;;;1999.90;999.90;;;17.70;55.60;;;;;;5036552;28;20493;-86
2023/05/29 08:03:22;;;;;;;1999.90;999.90;;;17.70;55.70;;;;;;5040932;28;20037;-87
2023/05/29 08:05:47;;;;;;;1999.90;999.90;;;18.00;56.00;;;;;;5024463;28;20455;-87
2023/05/29 08:08:13;;;;;;;1999.90;999.90;;;18.00;54.80;;;;;;5021051;28;20080;-86
2023/05/29 08:10:39;;;;;;;1999.90;999.90;;;18.20;54.30;;;;;;5036506;28;20507;-86
2023/05/29 08:13:05;;;;;;;1999.90;999.90;;;18.30;54.40;;;;;;5038277;28;20033;-88
2023/05/29 08:15:31;;;;;;;1999.90;999.90;;;18.40;53.10;;;;;;5033938;28;20034;-85
2023/05/29 08:17:57;;;;;;;1999.90;999.90;;;18.60;52.50;;;;;;5035677;28;20034;-87
2023/05/29 08:20:23;;;;;;;1999.90;999.90;;;18.60;51.20;;;;;;5041815;28;20053;-87
2023/05/29 08:22:48;;;;;;;1999.90;999.90;;;18.70;51.00;;;;;;5039639;28;20044;-87
2023/05/29 08:25:15;;;;;;;1999.90;999.90;;;18.80;51.10;;;;;;5037926;28;20037;-86
2023/05/29 08:27:41;;;;;;;1999.90;999.90;;;18.90;51.20;;;;;;5037797;28;20030;-87
2023/05/29 08:30:07;;;;;;;1999.90;999.90;;;19.30;51.00;;;;;;5039919;28;20033;-86
2023/05/29 08:32:32;;;;;;;1999.90;999.90;;;19.50;49.70;;;;;;5041568;28;20053;-87
2023/05/29 08:34:58;;;;;;;1999.90;999.90;;;19.60;50.60;;;;;;5035889;28;20067;-86
2023/05/29 08:37:24;;;;;;;1999.90;999.90;;;19.90;50.10;;;;;;5043603;28;20032;-85
2023/05/29 08:39:50;;;;;;;1999.90;999.90;;;19.90;48.00;;;;;;5036114;28;20164;-85
2023/05/29 08:42:26;;;;;;;1999.90;999.90;;;19.80;50.20;;;;;;5036987;28;20037;-85
2023/05/29 08:44:57;;;;;;;1999.90;999.90;;;20.20;51.00;;;;;;5039885;28;20404;-85
2023/05/29 08:47:26;;;;;;;1999.90;999.90;;;20.10;47.60;;;;;;5030974;28;20021;-87
2023/05/29 08:49:53;;;;;;;1999.90;999.90;;;20.10;48.50;;;;;;5036578;28;20055;-85
2023/05/29 08:52:21;;;;;;;1999.90;999.90;;;20.20;46.80;;;;;;5039194;28;20068;-84
2023/05/29 08:54:47;;;;;;;1999.90;999.90;;;20.20;47.70;;;;;;5037704;28;20033;-85
2023/05/29 08:57:13;;;;;;;1999.90;999.90;;;20.30;48.90;;;;;;5041625;28;20040;-85
2023/05/29 08:59:42;;;;;;;1999.90;999.90;;;20.50;47.80;;;;;;5037550;28;20038;-85
2023/05/29 09:02:09;;;;;;;1999.90;999.90;;;20.50;46.70;;;;;;5042128;28;20044;-85
2023/05/29 09:04:35;;;;;;;1999.90;999.90;;;20.90;48.20;;;;;;5041492;28;20059;-84
2023/05/29 09:07:02;;;;;;;1999.90;999.90;;;21.40;47.10;;;;;;5028798;28;20049;-84
2023/05/29 09:09:29;;;;;;;1999.90;999.90;;;21.20;43.80;;;;;;5041499;28;20473;-84
2023/05/29 09:11:56;;;;;;;1999.90;999.90;;;21.40;46.90;;;;;;5038708;28;20082;-84
2023/05/29 09:14:39;;;;;;;1999.90;999.90;;;21.60;44.40;;;;;;5034628;28;20029;-85
2023/05/29 09:17:06;;;;;;;1999.90;999.90;;;21.50;43.30;;;;;;5055743;28;20029;-84
2023/05/29 09:19:33;;;;;;;1999.90;999.90;;;21.70;43.20;;;;;;5030666;28;20050;-84
2023/05/29 09:22:07;;;;;;;1999.90;999.90;;;21.50;41.80;;;;;;5037962;28;20083;-84
2023/05/29 09:24:36;;;;;;;1999.90;999.90;;;21.80;45.10;;;;;;5036004;28;20870;-85
2023/05/29 09:27:04;;;;;;;1999.90;999.90;;;21.80;42.10;;;;;;5037825;28;20407;-84
2023/05/29 09:29:33;;;;;;;1999.90;999.90;;;22.30;42.80;;;;;;5039766;28;20042;-85
2023/05/29 09:32:00;;;;;;;1999.90;999.90;;;22.40;41.40;;;;;;5035101;28;20056;-84
2023/05/29 09:34:27;;;;;;;1999.90;999.90;;;22.40;38.50;;;;;;5037225;28;20033;-85
2023/05/29 09:37:02;;;;;;;1999.90;999.90;;;22.40;41.30;;;;;;5038818;28;20032;-84
2023/05/29 09:39:28;;;;;;;1999.90;999.90;;;22.70;38.40;;;;;;5038266;28;20111;-85
2023/05/29 09:41:54;;;;;;;1999.90;999.90;;;22.70;38.10;;;;;;5025632;28;20635;-84
2023/05/29 09:44:20;;;;;;;1999.90;999.90;;;22.50;37.20;;;;;;5034653;28;20063;-85
2023/05/29 09:46:49;;;;;;;1999.90;999.90;;;22.50;36.90;;;;;;5045927;28;20500;-85
2023/05/29 09:49:16;;;;;;;1999.90;999.90;;;22.60;34.50;;;;;;5039774;28;20026;-85
2023/05/29 09:51:44;;;;;;;1999.90;999.90;;;22.80;32.60;;;;;;5036889;28;20036;-85
2023/05/29 09:54:17;;;;;;;1999.90;999.90;;;23.00;33.90;;;;;;5038601;28;20378;-85
2023/05/29 09:56:43;;;;;;;1999.90;999.90;;;22.90;32.90;;;;;;5012218;28;20517;-85
2023/05/29 09:59:13;;;;;;;1999.90;999.90;;;22.90;37.80;;;;;;5019914;28;20164;-85
2023/05/29 10:01:46;;;;;;;1999.90;999.90;;;22.80;33.30;;;;;;5046771;28;20026;-86
2023/05/29 10:04:13;;;;;;;1999.90;999.90;;;22.60;31.90;;;;;;5039284;28;20113;-84
2023/05/29 10:06:44;;;;;;;1999.90;999.90;;;22.50;36.00;;;;;;5023972;28;20463;-85
2023/05/29 10:09:13;;;;;;;1999.90;999.90;;;22.80;33.30;;;;;;5036580;28;20087;-84
2023/05/29 10:11:43;;;;;;;1999.90;999.90;;;22.70;29.80;;;;;;5035816;28;20120;-84
2023/05/29 10:14:13;;;;;;;1999.90;999.90;;;22.90;31.50;;;;;;5040577;28;20036;-83
2023/05/29 10:16:43;;;;;;;1999.90;999.90;;;23.10;32.50;;;;;;5043793;28;20045;-83
2023/05/29 10:19:15;;;;;;;1999.90;999.90;;;23.60;34.40;;;;;;5038968;28;20041;-83
2023/05/29 10:21:44;;;;;;;1999.90;999.90;;;23.80;34.90;;;;;;5040052;28;20278;-84
2023/05/29 10:24:11;;;;;;;1999.90;999.90;;;23.30;32.00;;;;;;5037729;28;20092;-83
2023/05/29 10:26:40;;;;;;;1999.90;999.90;;;23.50;33.30;;;;;;5032060;28;20021;-85
2023/05/29 10:29:28;;;;;;;1999.90;999.90;;;23.70;33.90;;;;;;5037097;28;20025;-84
2023/05/29 10:32:06;;;;;;;1999.90;999.90;;;24.00;35.00;;;;;;5038229;28;20124;-84
2023/05/29 10:34:43;;;;;;;1999.90;999.90;;;24.00;33.50;;;;;;5041297;28;20047;-84
2023/05/29 10:37:27;;;;;;;1999.90;999.90;;;24.30;32.00;;;;;;5032146;28;20038;-83
2023/05/29 10:39:53;;;;;;;1999.90;999.90;;;24.10;32.10;;;;;;5036288;28;20118;-84
2023/05/29 10:42:40;;;;;;;1999.90;999.90;;;23.70;30.80;;;;;;5039271;28;20049;-84
2023/05/29 10:45:06;;;;;;;1999.90;999.90;;;23.70;32.20;;;;;;5039406;28;20048;-84
2023/05/29 10:47:31;;;;;;;1999.90;999.90;;;23.70;31.80;;;;;;5024096;28;20507;-84
2023/05/29 10:50:01;;;;;;;1999.90;999.90;;;24.20;34.60;;;;;;5032141;28;20021;-83
2023/05/29 10:52:35;;;;;;;1999.90;999.90;;;24.10;31.10;;;;;;5038490;28;20021;-84
2023/05/29 10:55:04;;;;;;;1999.90;999.90;;;24.70;30.00;;;;;;5028703;28;20480;-84
2023/05/29 10:57:30;;;;;;;1999.90;999.90;;;25.00;29.80;;;;;;5031044;28;20108;-84
2023/05/29 11:00:04;;;;;;;1999.90;999.90;;;25.10;30.20;;;;;;5039369;28;20044;-84
2023/05/29 11:02:30;;;;;;;1999.90;999.90;;;24.90;28.80;;;;;;5031679;28;20112;-84
2023/05/29 11:05:26;;;;;;;1999.90;999.90;;;25.10;29.60;;;;;;5038988;28;20159;-85
2023/05/29 11:08:06;;;;;;;1999.90;999.90;;;25.60;29.20;;;;;;5034661;28;20033;-84
2023/05/29 11:11:06;;;;;;;1999.90;999.90;;;25.80;28.00;;;;;;5035493;28;20025;-84
2023/05/29 11:13:36;;;;;;;1999.90;999.90;;;25.20;28.50;;;;;;5026948;28;20061;-86
2023/05/29 11:16:06;;;;;;;;;;;26.30;28.00;;;;;;5035351;28;20036;-86
2023/05/29 11:18:31;;;;;;;;;;;26.00;27.30;;;;;;5040111;28;20091;-85
2023/05/29 11:21:01;;;;;;;1999.90;999.90;;;25.30;30.30;;;;;;5034002;28;20012;-84
2023/05/29 11:23:31;;;;;;;1999.90;999.90;;;26.20;25.90;;;;;;5032346;28;20029;-85
2023/05/29 11:25:59;;;;;;;1999.90;999.90;;;26.30;27.50;;;;;;5033184;28;20072;-84
2023/05/29 11:28:25;;;;;;;1999.90;999.90;;;26.70;25.60;;;;;;5033749;28;20030;-84
2023/05/29 11:30:52;;;;;;;1999.90;999.90;;;26.40;28.00;;;;;;5038467;28;20053;-86
2023/05/29 11:33:26;;;;;;;1999.90;999.90;;;27.60;26.40;;;;;;5039144;28;20026;-86
2023/05/29 11:36:00;;;;;;;1999.90;999.90;;;26.60;27.20;;;;;;5035728;28;20032;-85
2023/05/29 11:38:26;;;;;;;1999.90;999.90;;;26.80;26.30;;;;;;5021941;28;20491;-86
2023/05/29 11:40:54;;;;;;;1999.90;999.90;;;26.20;26.10;;;;;;5035497;28;20033;-85
2023/05/29 11:43:20;;;;;;;1999.90;999.90;;;26.50;27.00;;;;;;5037486;28;20033;-86
2023/05/29 11:45:45;;;;;;;1999.90;999.90;;;26.40;26.00;;;;;;5053823;28;20030;-85
2023/05/29 11:48:11;;;;;;;1999.90;999.90;;;26.50;25.10;;;;;;5032461;28;20037;-86
2023/05/29 11:50:37;;;;;;;1999.90;999.90;;;26.60;26.30;;;;;;5034278;28;20095;-87
2023/05/29 11:53:05;;;;;;;1999.90;999.90;;;26.70;25.30;;;;;;5013494;28;20034;-88
2023/05/29 11:55:31;;;;;;;1999.90;999.90;;;26.40;24.30;;;;;;5031826;28;20033;-87
2023/05/29 11:58:02;;;;;;;1999.90;999.90;;;26.80;28.10;;;;;;5038502;28;20044;-85
2023/05/29 12:00:35;;;;;;;1999.90;999.90;;;27.60;25.00;;;;;;5028194;28;20084;-85
2023/05/29 12:03:05;;;;;;;1999.90;999.90;;;27.40;23.70;;;;;;5036698;28;20510;-86
2023/05/29 12:05:55;;;;;;;1999.90;999.90;;;27.30;23.90;;;;;;5036472;28;20022;-85